Time;durP1;ratioP1;P1;durP2;ratioP2;P2;SDS_P1;SDS_P2;PMS_P1;PMS_P2;Temp;Humidity;BMP_temperature;BMP_pressure;BME280_temperature;BME280_humidity;BME280_pressure;Samples;Min_cycle;Max_cycle;Signal;HPM_P1;HPM_P2
2023/11/16 00:00:17;;;;;;;19.30;5.10;;;9.10;99.90;;;;;;7285037;19;20201;-79
2023/11/16 00:02:42;;;;;;;22.17;4.70;;;9.10;99.90;;;;;;7286874;19;20203;-76
2023/11/16 00:05:13;;;;;;;20.60;4.73;;;9.10;99.90;;;;;;7287323;19;20209;-76
2023/11/16 00:07:46;;;;;;;22.37;4.30;;;9.10;99.90;;;;;;7284583;19;20189;-76
2023/11/16 00:10:16;;;;;;;21.10;4.57;;;9.10;99.90;;;;;;7287632;19;20207;-76
2023/11/16 00:12:42;;;;;;;20.10;4.47;;;9.20;99.90;;;;;;7286028;19;20613;-76
2023/11/16 00:15:08;;;;;;;13.27;4.20;;;9.20;99.90;;;;;;7285045;19;20297;-76
2023/11/16 00:17:37;;;;;;;24.53;4.80;;;9.30;99.90;;;;;;7286197;19;21098;-76
2023/11/16 00:20:04;;;;;;;18.83;4.40;;;9.40;99.90;;;;;;7285166;19;20197;-76
2023/11/16 00:22:30;;;;;;;19.70;4.80;;;9.30;99.90;;;;;;7286283;19;20185;-76
2023/11/16 00:24:56;;;;;;;16.60;3.70;;;9.40;99.90;;;;;;7294521;19;20214;-76
2023/11/16 00:27:24;;;;;;;20.03;3.97;;;9.40;99.90;;;;;;7305427;19;20193;-77
2023/11/16 00:29:49;;;;;;;14.57;4.13;;;9.40;99.90;;;;;;7286961;19;20187;-76
2023/11/16 00:32:15;;;;;;;16.27;3.90;;;9.50;99.90;;;;;;7283395;19;20211;-77
2023/11/16 00:34:41;;;;;;;18.97;4.60;;;9.50;99.90;;;;;;7285879;19;20197;-76
2023/11/16 00:37:07;;;;;;;20.90;4.17;;;9.50;99.90;;;;;;7285597;19;20204;-76
2023/11/16 00:39:34;;;;;;;19.27;4.17;;;9.40;99.90;;;;;;7284047;19;20186;-76
2023/11/16 00:41:59;;;;;;;20.57;5.00;;;9.40;99.90;;;;;;7283975;19;20249;-77
2023/11/16 00:44:25;;;;;;;19.07;3.80;;;9.40;99.90;;;;;;7302482;19;20596;-76
2023/11/16 00:46:52;;;;;;;18.73;4.00;;;9.30;99.90;;;;;;7296640;19;20711;-77
2023/11/16 00:49:18;;;;;;;21.77;4.63;;;9.40;99.90;;;;;;7283605;19;20217;-77
2023/11/16 00:51:45;;;;;;;18.43;3.90;;;9.40;99.90;;;;;;7285371;19;20197;-77
2023/11/16 00:54:13;;;;;;;21.60;4.03;;;9.40;99.90;;;;;;7282837;19;20696;-77
2023/11/16 00:56:39;;;;;;;20.43;4.33;;;9.40;99.90;;;;;;7285312;19;20252;-76
2023/11/16 00:59:05;;;;;;;14.10;3.60;;;9.40;99.90;;;;;;7284949;19;20195;-77
2023/11/16 01:01:34;;;;;;;21.83;4.20;;;9.50;99.90;;;;;;7281546;19;20200;-76
2023/11/16 01:04:01;;;;;;;15.03;3.37;;;9.40;99.90;;;;;;7285115;19;20186;-79
2023/11/16 01:06:28;;;;;;;21.67;3.60;;;9.40;99.90;;;;;;7283746;19;20182;-79
2023/11/16 01:08:56;;;;;;;14.80;3.80;;;9.40;99.90;;;;;;7306664;19;20205;-79
2023/11/16 01:11:27;;;;;;;16.27;3.57;;;9.40;99.90;;;;;;7284934;19;20181;-77
2023/11/16 01:13:57;;;;;;;18.70;3.97;;;9.40;99.90;;;;;;7284310;19;20184;-77
2023/11/16 01:16:34;;;;;;;18.90;4.10;;;9.40;99.90;;;;;;7285244;19;20189;-77
2023/11/16 01:19:00;;;;;;;22.87;4.23;;;9.40;99.90;;;;;;7181721;19;2005237;-77
2023/11/16 01:21:26;;;;;;;20.17;4.00;;;9.40;99.90;;;;;;7292481;19;20188;-77
2023/11/16 01:24:01;;;;;;;18.20;3.83;;;9.40;99.90;;;;;;7307884;19;20193;-77
2023/11/16 01:26:29;;;;;;;20.50;3.90;;;9.40;99.90;;;;;;7261358;19;20186;-77
2023/11/16 01:29:01;;;;;;;18.00;3.90;;;9.40;99.90;;;;;;7305336;19;20186;-78
2023/11/16 01:31:27;;;;;;;20.23;4.67;;;9.50;99.90;;;;;;7264256;19;20543;-77
2023/11/16 01:33:53;;;;;;;22.47;4.13;;;9.40;99.90;;;;;;7303889;19;20521;-78
2023/11/16 01:36:19;;;;;;;20.83;4.40;;;9.40;99.90;;;;;;7284343;19;20193;-78
2023/11/16 01:38:48;;;;;;;18.90;4.43;;;9.40;99.90;;;;;;7284027;19;20245;-78
2023/11/16 01:41:14;;;;;;;18.73;4.17;;;9.40;99.90;;;;;;7281347;19;20249;-78
2023/11/16 01:43:40;;;;;;;18.03;3.90;;;9.40;99.90;;;;;;7285344;19;20206;-77
2023/11/16 01:46:06;;;;;;;21.70;4.10;;;9.40;99.90;;;;;;7282624;19;20202;-78
2023/11/16 01:48:34;;;;;;;19.63;4.17;;;9.50;99.90;;;;;;7283920;19;20186;-78
2023/11/16 01:51:06;;;;;;;24.10;4.27;;;9.50;99.90;;;;;;7283783;19;20186;-78
2023/11/16 01:53:54;;;;;;;18.90;4.20;;;9.50;99.90;;;;;;7283637;19;20294;-78
2023/11/16 01:56:20;;;;;;;20.87;4.67;;;9.50;99.90;;;;;;7282675;19;20193;-78
2023/11/16 01:58:51;;;;;;;17.77;3.77;;;9.50;99.90;;;;;;7282710;19;20219;-78
2023/11/16 02:01:19;;;;;;;20.27;4.20;;;9.50;99.90;;;;;;7281380;19;20645;-77
2023/11/16 02:03:46;;;;;;;18.97;4.57;;;9.50;99.90;;;;;;7283476;19;20197;-78
2023/11/16 02:06:12;;;;;;;19.70;4.40;;;9.50;99.90;;;;;;7283692;19;20216;-78
2023/11/16 02:08:39;;;;;;;21.87;5.27;;;9.50;99.90;;;;;;7282803;19;20193;-78
2023/11/16 02:11:05;;;;;;;23.67;4.67;;;9.50;99.90;;;;;;7282036;19;20190;-77
2023/11/16 02:13:31;;;;;;;19.57;4.80;;;9.50;99.90;;;;;;7281489;19;20185;-78
2023/11/16 02:15:57;;;;;;;19.13;4.30;;;9.50;99.90;;;;;;7282541;19;20194;-77
2023/11/16 02:18:25;;;;;;;15.57;4.20;;;9.50;99.90;;;;;;7305145;19;20637;-78
2023/11/16 02:20:54;;;;;;;19.30;4.60;;;9.60;99.90;;;;;;7281005;19;20173;-78
2023/11/16 02:23:21;;;;;;;19.80;4.27;;;9.50;99.90;;;;;;7282635;19;20181;-78
2023/11/16 02:25:51;;;;;;;16.17;4.20;;;9.50;99.90;;;;;;7282290;19;20574;-77
2023/11/16 02:28:21;;;;;;;21.27;5.50;;;9.50;99.90;;;;;;7281002;19;20263;-77
2023/11/16 02:30:47;;;;;;;16.20;4.40;;;9.50;99.90;;;;;;7281772;19;20191;-78
2023/11/16 02:33:13;;;;;;;17.93;4.43;;;9.50;99.90;;;;;;7282124;19;20198;-78
2023/11/16 02:35:39;;;;;;;18.37;3.97;;;9.50;99.90;;;;;;7282309;19;20273;-78
2023/11/16 02:38:08;;;;;;;21.13;5.20;;;9.60;99.90;;;;;;7280155;19;20726;-78
2023/11/16 02:40:34;;;;;;;17.40;4.30;;;9.40;99.90;;;;;;7281310;19;20186;-78
2023/11/16 02:43:02;;;;;;;20.97;4.53;;;9.50;99.90;;;;;;7281232;19;20194;-78
2023/11/16 02:45:28;;;;;;;16.67;4.37;;;9.50;99.90;;;;;;7281478;19;20190;-78
2023/11/16 02:47:54;;;;;;;18.60;4.13;;;9.50;99.90;;;;;;7302878;19;20206;-78
2023/11/16 02:50:22;;;;;;;20.77;4.13;;;9.50;99.90;;;;;;7280456;19;20673;-78
2023/11/16 02:52:51;;;;;;;16.53;3.77;;;9.60;99.90;;;;;;7281725;19;20740;-78
2023/11/16 02:55:17;;;;;;;17.70;3.73;;;9.60;99.90;;;;;;7283409;19;20615;-78
2023/11/16 02:57:43;;;;;;;18.73;3.70;;;9.60;99.90;;;;;;7287751;19;20218;-78
2023/11/16 03:00:12;;;;;;;18.97;3.73;;;9.60;99.90;;;;;;7286688;19;20197;-78
2023/11/16 03:02:47;;;;;;;13.60;3.60;;;9.60;99.90;;;;;;7284275;19;20198;-78
2023/11/16 03:05:14;;;;;;;18.30;3.63;;;9.60;99.90;;;;;;7288439;19;20198;-77
2023/11/16 03:07:41;;;;;;;19.73;4.10;;;9.50;99.90;;;;;;7287116;19;20187;-77
2023/11/16 03:10:11;;;;;;;18.87;3.87;;;9.60;99.90;;;;;;7288149;19;20560;-78
2023/11/16 03:12:38;;;;;;;17.60;4.00;;;9.70;99.90;;;;;;7287340;19;20198;-78
2023/11/16 03:15:08;;;;;;;16.03;4.47;;;9.70;99.90;;;;;;7287535;19;20211;-78
2023/11/16 03:17:40;;;;;;;20.20;4.17;;;9.70;99.90;;;;;;7286593;19;20196;-78
2023/11/16 03:20:09;;;;;;;15.17;3.83;;;9.60;99.90;;;;;;7287166;19;20294;-78
2023/11/16 03:22:36;;;;;;;18.57;3.30;;;9.60;99.90;;;;;;7286832;19;20202;-78
2023/11/16 03:25:03;;;;;;;20.13;3.60;;;9.50;99.90;;;;;;7286546;19;20185;-78
2023/11/16 03:27:29;;;;;;;16.77;3.90;;;9.60;99.90;;;;;;7286669;19;20202;-77
2023/11/16 03:29:55;;;;;;;14.77;4.03;;;9.60;99.90;;;;;;7310663;19;20197;-77
2023/11/16 03:32:21;;;;;;;21.70;4.07;;;9.60;99.90;;;;;;7288034;19;20194;-78
2023/11/16 03:34:48;;;;;;;19.67;4.23;;;9.60;99.90;;;;;;7286665;19;20655;-78
2023/11/16 03:37:16;;;;;;;18.57;3.93;;;9.70;99.90;;;;;;7287053;19;20197;-77
2023/11/16 03:39:42;;;;;;;18.13;4.00;;;9.60;99.90;;;;;;7287722;19;20658;-77
2023/11/16 03:42:08;;;;;;;17.67;3.40;;;9.60;99.90;;;;;;7286259;19;20203;-78
2023/11/16 03:44:35;;;;;;;22.57;3.73;;;9.60;99.90;;;;;;7286057;19;20193;-78
2023/11/16 03:47:01;;;;;;;15.73;4.00;;;9.60;99.90;;;;;;7285774;19;20194;-78
2023/11/16 03:49:26;;;;;;;17.13;3.37;;;9.50;99.90;;;;;;7297902;19;20654;-78
2023/11/16 03:51:53;;;;;;;18.17;3.87;;;9.60;99.90;;;;;;7305974;19;20211;-78
2023/11/16 03:54:19;;;;;;;17.10;3.67;;;9.50;99.90;;;;;;7286831;19;20185;-78
2023/11/16 03:56:45;;;;;;;18.73;3.87;;;9.50;99.90;;;;;;7287643;19;21612;-79
2023/11/16 03:59:12;;;;;;;17.90;3.67;;;9.60;99.90;;;;;;7284378;19;20653;-77
2023/11/16 04:01:39;;;;;;;19.17;3.60;;;9.60;99.90;;;;;;7285466;19;20201;-78
2023/11/16 04:04:10;;;;;;;17.33;3.27;;;9.60;99.90;;;;;;7287418;19;20186;-78
2023/11/16 04:06:37;;;;;;;15.23;3.63;;;9.50;99.90;;;;;;7282623;19;20208;-78
2023/11/16 04:09:06;;;;;;;19.63;3.77;;;9.60;99.90;;;;;;7286143;19;20214;-77
2023/11/16 04:11:33;;;;;;;19.33;4.00;;;9.50;99.90;;;;;;7286432;19;20192;-78
2023/11/16 04:13:59;;;;;;;20.23;3.57;;;9.40;99.90;;;;;;7285541;19;20223;-78
2023/11/16 04:16:25;;;;;;;18.73;3.90;;;9.30;99.90;;;;;;7308216;19;20196;-78
2023/11/16 04:18:51;;;;;;;17.53;3.80;;;9.30;99.90;;;;;;7285804;19;20209;-78
2023/11/16 04:21:19;;;;;;;19.13;4.00;;;9.40;99.90;;;;;;7284705;19;20297;-78
2023/11/16 04:23:52;;;;;;;14.03;3.60;;;9.40;99.90;;;;;;7287173;19;20207;-78
2023/11/16 04:26:25;;;;;;;15.43;3.73;;;9.40;99.90;;;;;;7284562;19;20197;-78
2023/11/16 04:28:51;;;;;;;20.73;3.70;;;9.40;99.90;;;;;;7284666;19;20189;-78
2023/11/16 04:31:18;;;;;;;20.23;4.27;;;9.40;99.90;;;;;;7285087;19;20194;-78
2023/11/16 04:33:45;;;;;;;22.77;4.20;;;9.30;99.90;;;;;;7285332;19;20197;-78
2023/11/16 04:36:18;;;;;;;18.03;3.60;;;9.40;99.90;;;;;;7286374;19;20264;-78
2023/11/16 04:38:45;;;;;;;22.60;4.33;;;9.40;99.90;;;;;;7286065;19;20194;-78
2023/11/16 04:41:14;;;;;;;17.37;3.90;;;9.40;99.90;;;;;;7284995;19;20196;-78
2023/11/16 04:43:44;;;;;;;21.20;4.00;;;9.30;99.90;;;;;;7285351;19;20197;-78
2023/11/16 04:46:11;;;;;;;22.73;4.23;;;9.30;99.90;;;;;;7284027;19;20596;-77
2023/11/16 04:48:42;;;;;;;17.60;4.27;;;9.20;99.90;;;;;;7284003;19;20197;-77
2023/11/16 04:51:09;;;;;;;19.27;4.20;;;9.20;99.90;;;;;;7285400;19;20201;-77
2023/11/16 04:53:36;;;;;;;16.87;4.03;;;9.20;99.90;;;;;;7282783;19;20186;-77
2023/11/16 04:56:03;;;;;;;18.27;4.10;;;9.20;99.90;;;;;;7284030;19;20196;-78
2023/11/16 04:58:29;;;;;;;21.80;3.87;;;9.10;99.90;;;;;;7285747;19;20186;-77
2023/11/16 05:00:55;;;;;;;19.97;3.90;;;9.10;99.90;;;;;;7306952;19;20675;-78
2023/11/16 05:03:21;;;;;;;21.30;3.73;;;9.00;99.90;;;;;;7284569;19;20229;-78
2023/11/16 05:05:47;;;;;;;17.80;3.80;;;9.00;99.90;;;;;;7281959;19;20190;-77
2023/11/16 05:08:13;;;;;;;19.67;4.00;;;9.00;99.90;;;;;;7282846;19;20199;-78
2023/11/16 05:10:39;;;;;;;19.07;3.97;;;9.00;99.90;;;;;;7284589;19;20261;-78
2023/11/16 05:13:05;;;;;;;19.70;3.73;;;9.00;99.90;;;;;;7284812;19;20568;-78
2023/11/16 05:15:31;;;;;;;19.40;3.80;;;8.80;99.90;;;;;;7283881;19;20256;-78
2023/11/16 05:17:56;;;;;;;16.77;3.90;;;8.60;99.90;;;;;;7297176;19;20246;-78
2023/11/16 05:20:22;;;;;;;18.13;3.67;;;8.60;99.90;;;;;;7300213;19;20184;-77
2023/11/16 05:22:49;;;;;;;20.87;5.07;;;8.50;99.90;;;;;;7284561;19;20648;-77
2023/11/16 05:25:15;;;;;;;20.30;4.17;;;8.30;99.90;;;;;;7281871;19;20193;-77
2023/11/16 05:27:41;;;;;;;20.93;3.97;;;8.30;99.90;;;;;;7280977;19;20352;-77
2023/11/16 05:30:08;;;;;;;21.70;4.47;;;8.40;99.90;;;;;;7283105;19;20229;-78
2023/11/16 05:32:33;;;;;;;15.03;4.03;;;8.40;99.90;;;;;;7283847;19;20822;-78
2023/11/16 05:34:59;;;;;;;18.50;4.77;;;8.30;99.90;;;;;;7283783;19;20280;-78
2023/11/16 05:37:25;;;;;;;17.50;4.13;;;8.20;99.90;;;;;;7304328;19;20185;-78
2023/11/16 05:39:51;;;;;;;16.83;4.43;;;8.20;99.90;;;;;;7283933;19;20185;-78
2023/11/16 05:42:17;;;;;;;21.07;5.23;;;8.20;99.90;;;;;;7281872;19;21927;-77
2023/11/16 05:44:44;;;;;;;26.17;4.60;;;8.20;99.90;;;;;;7281457;19;20200;-77
2023/11/16 05:47:11;;;;;;;24.17;5.23;;;8.20;99.90;;;;;;7281643;19;20189;-76
2023/11/16 05:49:37;;;;;;;21.37;4.70;;;8.20;99.90;;;;;;7281086;19;20204;-76
2023/11/16 05:52:06;;;;;;;22.37;5.00;;;8.20;99.90;;;;;;7280795;19;20505;-76
2023/11/16 05:54:32;;;;;;;26.27;5.27;;;8.20;99.90;;;;;;7283126;19;20208;-76
2023/11/16 05:56:58;;;;;;;23.20;5.23;;;8.20;99.90;;;;;;7281597;19;20193;-76
2023/11/16 05:59:23;;;;;;;26.43;5.60;;;8.10;99.90;;;;;;7303970;19;20195;-77
2023/11/16 06:01:49;;;;;;;21.10;5.60;;;8.00;99.90;;;;;;7281055;19;20264;-77
2023/11/16 06:04:15;;;;;;;23.23;5.57;;;8.00;99.90;;;;;;7283346;19;20643;-77
2023/11/16 06:06:41;;;;;;;19.53;4.83;;;8.00;99.90;;;;;;7279506;19;20216;-77
2023/11/16 06:09:06;;;;;;;27.33;5.77;;;7.90;99.90;;;;;;7282393;19;20184;-77
2023/11/16 06:11:32;;;;;;;26.13;6.00;;;7.80;99.90;;;;;;7282635;19;20219;-78
2023/11/16 06:13:59;;;;;;;24.50;5.60;;;7.90;99.90;;;;;;7280787;19;20209;-78
2023/11/16 06:16:25;;;;;;;29.53;5.73;;;7.80;99.90;;;;;;7303337;19;20188;-78
2023/11/16 06:18:56;;;;;;;29.93;6.60;;;7.70;99.90;;;;;;7283460;19;20313;-78
2023/11/16 06:21:21;;;;;;;23.93;5.73;;;7.70;99.90;;;;;;7279858;19;20192;-78
2023/11/16 06:23:49;;;;;;;23.77;5.03;;;7.60;99.90;;;;;;7283144;19;20179;-77
2023/11/16 06:26:15;;;;;;;22.60;5.77;;;7.70;99.90;;;;;;7281601;19;20209;-77
2023/11/16 06:28:41;;;;;;;24.27;5.30;;;7.70;99.90;;;;;;7280545;19;20191;-78
2023/11/16 06:31:06;;;;;;;26.70;5.57;;;7.70;99.90;;;;;;7288985;19;20184;-77
2023/11/16 06:33:32;;;;;;;21.57;5.33;;;7.70;99.90;;;;;;7289185;19;20189;-77
2023/11/16 06:35:58;;;;;;;20.57;5.20;;;7.80;99.90;;;;;;7288401;19;20289;-77
2023/11/16 06:38:25;;;;;;;23.00;5.53;;;7.80;99.90;;;;;;7311967;19;20196;-77
2023/11/16 06:40:51;;;;;;;26.10;5.73;;;7.70;99.90;;;;;;7287971;19;20206;-77
2023/11/16 06:43:16;;;;;;;25.97;5.50;;;7.80;99.90;;;;;;7288947;19;20198;-78
2023/11/16 06:45:44;;;;;;;21.67;5.73;;;7.70;99.90;;;;;;7288305;19;20204;-78
2023/11/16 06:48:10;;;;;;;26.00;5.43;;;7.70;99.90;;;;;;7289085;19;20932;-78
2023/11/16 06:50:38;;;;;;;26.90;5.50;;;7.80;99.90;;;;;;7290680;19;20225;-78
2023/11/16 06:53:09;;;;;;;29.27;5.60;;;7.80;99.90;;;;;;7288200;19;20679;-78
2023/11/16 06:55:43;;;;;;;24.10;5.73;;;7.90;99.90;;;;;;7288161;19;20672;-78
2023/11/16 06:58:09;;;;;;;27.17;6.97;;;8.00;99.90;;;;;;7287720;19;20192;-78
2023/11/16 07:00:36;;;;;;;24.20;5.63;;;8.00;99.90;;;;;;7287626;19;20188;-79
2023/11/16 07:03:06;;;;;;;21.33;5.83;;;8.00;99.90;;;;;;7288501;19;20594;-78
2023/11/16 07:05:32;;;;;;;24.70;5.93;;;8.00;99.90;;;;;;7287538;19;20316;-79
2023/11/16 07:07:58;;;;;;;18.77;5.20;;;8.10;99.90;;;;;;7289950;19;20189;-78
2023/11/16 07:10:24;;;;;;;20.23;5.20;;;8.00;99.90;;;;;;7310511;19;20218;-78
2023/11/16 07:12:51;;;;;;;24.23;6.53;;;7.90;99.90;;;;;;7287852;19;20193;-78
2023/11/16 07:15:17;;;;;;;19.90;5.97;;;7.80;99.90;;;;;;7287976;19;20202;-78
2023/11/16 07:17:43;;;;;;;24.13;5.87;;;7.90;99.90;;;;;;7287870;19;20249;-79
2023/11/16 07:20:11;;;;;;;28.50;6.07;;;7.90;99.90;;;;;;7285705;19;20616;-78
2023/11/16 07:22:37;;;;;;;18.93;5.87;;;8.00;99.90;;;;;;7285907;19;20723;-78
2023/11/16 07:25:06;;;;;;;28.50;6.73;;;7.90;99.90;;;;;;7287460;19;20193;-78
2023/11/16 07:27:32;;;;;;;19.70;6.30;;;7.90;99.90;;;;;;7286500;19;20208;-78
2023/11/16 07:29:58;;;;;;;24.73;5.70;;;8.00;99.90;;;;;;7289477;19;20181;-78
2023/11/16 07:32:24;;;;;;;26.33;6.13;;;8.00;99.90;;;;;;7308154;19;20196;-78
2023/11/16 07:34:50;;;;;;;27.10;6.77;;;8.10;99.90;;;;;;7287036;19;20189;-79
2023/11/16 07:37:16;;;;;;;23.93;6.63;;;8.30;99.90;;;;;;7287494;19;20189;-78
2023/11/16 07:39:42;;;;;;;26.10;6.40;;;8.40;99.90;;;;;;7284900;19;20196;-79
2023/11/16 07:42:09;;;;;;;25.73;6.27;;;8.50;99.90;;;;;;7285152;19;20215;-79
2023/11/16 07:44:37;;;;;;;21.73;6.47;;;8.50;99.90;;;;;;7286712;19;20204;-78
2023/11/16 07:47:03;;;;;;;23.53;6.37;;;8.40;99.90;;;;;;7284047;19;20210;-78
2023/11/16 07:49:31;;;;;;;19.13;5.77;;;8.60;99.90;;;;;;7285192;19;20225;-78
2023/11/16 07:51:58;;;;;;;23.50;6.40;;;8.60;99.90;;;;;;7298042;19;20634;-78
2023/11/16 07:54:25;;;;;;;22.87;6.67;;;8.50;99.90;;;;;;7307679;19;20193;-78
2023/11/16 07:57:01;;;;;;;24.10;7.23;;;8.40;99.90;;;;;;7285228;19;20186;-78
2023/11/16 07:59:31;;;;;;;22.03;6.77;;;8.50;99.90;;;;;;7280557;19;20208;-78
2023/11/16 08:02:00;;;;;;;27.33;6.67;;;8.60;99.90;;;;;;7297806;19;20589;-78
2023/11/16 08:04:27;;;;;;;20.67;7.00;;;8.60;99.90;;;;;;7308482;19;20188;-78
2023/11/16 08:06:53;;;;;;;24.27;7.10;;;8.70;99.90;;;;;;7287370;19;20222;-78
2023/11/16 08:09:21;;;;;;;18.67;6.00;;;8.70;99.90;;;;;;7285991;19;20185;-78
2023/11/16 08:11:47;;;;;;;24.50;7.43;;;8.60;99.90;;;;;;7285870;19;20210;-79
2023/11/16 08:14:13;;;;;;;27.97;7.00;;;8.70;99.90;;;;;;7286604;19;20193;-78
2023/11/16 08:16:39;;;;;;;25.27;7.27;;;8.70;99.90;;;;;;7286394;19;20199;-78
2023/11/16 08:19:06;;;;;;;21.10;6.93;;;8.80;99.90;;;;;;7285585;19;20200;-79
2023/11/16 08:21:31;;;;;;;24.30;6.87;;;8.80;99.90;;;;;;7286576;19;20235;-78
2023/11/16 08:23:58;;;;;;;23.10;7.53;;;8.80;99.90;;;;;;7298876;19;20644;-78
2023/11/16 08:26:23;;;;;;;20.80;7.07;;;8.90;99.90;;;;;;7306829;19;20212;-78
2023/11/16 08:28:50;;;;;;;22.10;6.93;;;9.00;99.90;;;;;;7286118;19;20188;-78
2023/11/16 08:31:16;;;;;;;26.60;8.10;;;9.10;99.90;;;;;;7286489;19;20534;-79
2023/11/16 08:33:43;;;;;;;22.90;7.43;;;9.20;99.90;;;;;;7285318;19;20219;-78
2023/11/16 08:36:11;;;;;;;22.37;7.20;;;9.10;99.90;;;;;;7286378;19;20189;-78
2023/11/16 08:38:45;;;;;;;26.10;7.07;;;9.10;99.90;;;;;;7285455;19;20653;-78
2023/11/16 08:41:18;;;;;;;23.97;7.10;;;9.00;99.90;;;;;;7285094;19;20683;-79
2023/11/16 08:43:50;;;;;;;22.67;7.47;;;9.10;99.90;;;;;;7284304;19;20194;-79
2023/11/16 08:46:24;;;;;;;21.77;7.37;;;9.20;99.90;;;;;;7282581;19;20220;-78
2023/11/16 08:48:53;;;;;;;28.57;7.77;;;9.20;99.90;;;;;;7284668;19;20188;-79
2023/11/16 08:51:22;;;;;;;26.27;7.53;;;9.10;99.90;;;;;;7284678;19;20211;-79
2023/11/16 08:53:50;;;;;;;22.13;6.73;;;9.20;99.90;;;;;;7279917;19;20209;-78
2023/11/16 08:56:16;;;;;;;22.93;8.10;;;9.10;99.90;;;;;;7285313;19;20197;-78
2023/11/16 08:58:47;;;;;;;21.77;7.17;;;9.20;99.90;;;;;;7284594;19;20267;-78
2023/11/16 09:01:17;;;;;;;18.03;6.40;;;9.20;99.90;;;;;;7284826;19;20200;-78
2023/11/16 09:03:49;;;;;;;23.37;6.63;;;9.20;99.90;;;;;;7285565;19;20197;-78
2023/11/16 09:06:16;;;;;;;19.33;7.20;;;9.10;99.90;;;;;;7283746;19;20198;-78
2023/11/16 09:08:42;;;;;;;20.00;7.47;;;9.20;99.90;;;;;;7283565;19;20533;-79
2023/11/16 09:11:08;;;;;;;22.40;7.13;;;9.40;99.90;;;;;;7284534;19;20597;-78
2023/11/16 09:13:34;;;;;;;20.17;7.20;;;9.40;99.90;;;;;;7282611;19;20631;-78
2023/11/16 09:16:00;;;;;;;22.17;7.60;;;9.40;99.90;;;;;;7282955;19;20197;-78
2023/11/16 09:18:27;;;;;;;21.50;7.60;;;9.40;99.90;;;;;;7306797;19;20184;-78
2023/11/16 09:20:56;;;;;;;27.40;8.17;;;9.40;99.90;;;;;;7283613;19;20204;-78
2023/11/16 09:23:23;;;;;;;23.43;7.17;;;9.20;99.90;;;;;;7284378;19;20268;-78
2023/11/16 09:25:49;;;;;;;18.90;6.93;;;9.30;99.90;;;;;;7283595;19;20200;-78
2023/11/16 09:28:15;;;;;;;19.53;7.20;;;9.30;99.90;;;;;;7281186;19;20193;-78
2023/11/16 09:30:43;;;;;;;19.43;7.23;;;9.30;99.90;;;;;;7283916;19;20197;-78
2023/11/16 09:33:10;;;;;;;22.67;7.93;;;9.40;99.90;;;;;;7283827;19;20207;-78
2023/11/16 09:35:42;;;;;;;20.80;7.43;;;9.50;99.90;;;;;;7283703;19;20194;-78
2023/11/16 09:38:11;;;;;;;21.00;8.13;;;9.60;99.90;;;;;;7281846;19;20198;-78
2023/11/16 09:40:38;;;;;;;25.40;8.50;;;9.60;99.90;;;;;;7282673;19;20206;-79
2023/11/16 09:43:20;;;;;;;25.83;8.80;;;9.70;99.90;;;;;;7282390;19;20194;-77
2023/11/16 09:45:47;;;;;;;22.83;8.00;;;9.70;99.90;;;;;;7281462;19;20198;-79
2023/11/16 09:48:14;;;;;;;22.63;8.50;;;9.80;99.90;;;;;;7281188;19;20197;-78
2023/11/16 09:50:48;;;;;;;26.90;8.87;;;9.90;99.90;;;;;;7283777;19;20185;-78
2023/11/16 09:53:18;;;;;;;24.70;8.63;;;10.10;99.90;;;;;;7282792;19;20222;-79
2023/11/16 09:55:56;;;;;;;20.97;7.73;;;10.30;99.90;;;;;;7284052;19;20198;-78
2023/11/16 09:58:25;;;;;;;26.60;8.40;;;10.40;99.90;;;;;;7282573;19;20190;-79
2023/11/16 10:00:56;;;;;;;24.20;9.17;;;10.60;99.90;;;;;;7281800;19;20195;-78
2023/11/16 10:03:31;;;;;;;23.67;9.00;;;10.70;99.90;;;;;;7283569;19;20186;-78
2023/11/16 10:06:03;;;;;;;20.93;8.60;;;10.70;99.90;;;;;;7289042;19;20191;-78
2023/11/16 10:08:29;;;;;;;24.83;8.87;;;10.80;99.90;;;;;;7271758;19;20195;-78
2023/11/16 10:10:57;;;;;;;22.33;8.70;;;10.80;99.90;;;;;;7313021;19;20585;-79
2023/11/16 10:13:27;;;;;;;19.73;8.30;;;10.70;99.90;;;;;;7289947;19;20195;-78
2023/11/16 10:15:58;;;;;;;21.37;8.30;;;10.80;99.90;;;;;;7288582;19;20207;-78
2023/11/16 10:18:24;;;;;;;17.70;7.93;;;10.80;99.90;;;;;;7290961;19;20192;-79
2023/11/16 10:20:50;;;;;;;22.43;8.80;;;10.90;99.90;;;;;;7287878;19;20562;-78
2023/11/16 10:23:19;;;;;;;28.07;9.63;;;10.80;99.90;;;;;;7288494;19;20194;-78
2023/11/16 10:25:48;;;;;;;25.87;8.97;;;10.80;99.90;;;;;;7288536;19;20205;-77
2023/11/16 10:28:19;;;;;;;24.87;8.97;;;10.80;99.90;;;;;;7287577;19;20599;-78
2023/11/16 10:30:50;;;;;;;21.57;8.43;;;10.80;99.90;;;;;;7289274;19;20211;-78
2023/11/16 10:33:21;;;;;;;26.00;9.33;;;10.90;99.90;;;;;;7289033;19;20539;-79
2023/11/16 10:35:49;;;;;;;19.20;8.73;;;10.80;99.90;;;;;;7286810;19;20270;-78
2023/11/16 10:38:17;;;;;;;23.50;9.57;;;10.80;99.90;;;;;;7288614;19;20641;-78
2023/11/16 10:40:49;;;;;;;23.10;9.57;;;10.80;99.90;;;;;;7288798;19;20199;-78
2023/11/16 10:43:19;;;;;;;47.07;17.50;;;10.70;99.90;;;;;;7287296;19;20566;-78
2023/11/16 10:45:45;;;;;;;24.77;10.07;;;10.70;99.90;;;;;;7288772;19;20198;-78
2023/11/16 10:48:15;;;;;;;23.43;9.77;;;10.70;99.90;;;;;;7288556;19;20218;-78
2023/11/16 10:50:42;;;;;;;24.47;9.37;;;10.70;99.90;;;;;;7288446;19;20222;-78
2023/11/16 10:53:22;;;;;;;22.10;8.73;;;10.80;99.90;;;;;;7286889;19;20192;-79
2023/11/16 10:55:57;;;;;;;22.77;9.10;;;10.70;99.90;;;;;;7287345;19;20228;-78
2023/11/16 10:58:29;;;;;;;23.13;8.93;;;10.80;99.90;;;;;;7287990;19;20255;-78
2023/11/16 11:01:02;;;;;;;22.23;9.33;;;10.80;99.90;;;;;;7289843;19;20717;-78
2023/11/16 11:03:27;;;;;;;21.23;9.20;;;10.80;99.90;;;;;;7289203;19;20275;-78
2023/11/16 11:05:57;;;;;;;18.80;8.90;;;10.90;99.90;;;;;;7289476;19;20701;-78
2023/11/16 11:08:43;;;;;;;26.33;9.80;;;10.90;99.90;;;;;;7287917;19;20183;-79
2023/11/16 11:11:10;;;;;;;22.40;9.40;;;11.00;99.90;;;;;;7185162;19;2006230;-78
2023/11/16 11:13:39;;;;;;;21.47;10.40;;;11.10;99.90;;;;;;7286274;19;20194;-78
2023/11/16 11:16:12;;;;;;;23.47;9.60;;;11.20;99.90;;;;;;7285997;19;20191;-78
2023/11/16 11:18:51;;;;;;;28.07;9.27;;;11.10;99.90;;;;;;7286034;19;20243;-78
2023/11/16 11:21:22;;;;;;;20.37;9.57;;;10.90;99.90;;;;;;7288338;19;20682;-81
2023/11/16 11:23:59;;;;;;;20.63;9.50;;;10.90;99.90;;;;;;7289195;19;20890;-82
2023/11/16 11:26:25;;;;;;;18.37;8.70;;;10.90;99.90;;;;;;7287680;19;20215;-81
2023/11/16 11:28:52;;;;;;;16.53;8.20;;;10.80;99.90;;;;;;7285706;19;20553;-83
2023/11/16 11:31:33;;;;;;;17.37;6.33;;;10.60;99.90;;;;;;7290129;19;20203;-83
2023/11/16 11:33:59;;;;;;;14.97;6.90;;;10.30;99.90;;;;;;7276575;19;20186;-78
2023/11/16 11:36:25;;;;;;;15.27;6.50;;;10.20;99.90;;;;;;7307328;19;20190;-79
2023/11/16 11:38:53;;;;;;;12.33;5.50;;;10.10;99.90;;;;;;7285148;19;20197;-79
2023/11/16 11:41:18;;;;;;;18.00;6.10;;;9.90;99.90;;;;;;7285883;19;20678;-79
2023/11/16 11:43:45;;;;;;;15.63;5.77;;;9.80;99.90;;;;;;7286392;19;20182;-81
2023/11/16 11:46:18;;;;;;;13.27;5.57;;;9.90;99.90;;;;;;7285329;19;20196;-79
2023/11/16 11:48:45;;;;;;;14.80;5.80;;;9.80;99.90;;;;;;7287074;19;20869;-80
2023/11/16 11:51:14;;;;;;;14.90;5.67;;;9.90;99.90;;;;;;7288414;19;20226;-80
2023/11/16 11:53:40;;;;;;;12.67;5.83;;;9.80;99.90;;;;;;7287253;19;20198;-80
2023/11/16 11:56:10;;;;;;;12.93;5.83;;;9.90;99.90;;;;;;7287708;19;20177;-80
2023/11/16 11:58:42;;;;;;;16.37;6.13;;;10.00;99.90;;;;;;7286229;19;20541;-80
2023/11/16 12:01:11;;;;;;;15.00;5.80;;;10.00;99.90;;;;;;7286450;19;20193;-81
2023/11/16 12:03:51;;;;;;;14.33;6.10;;;10.10;99.90;;;;;;7286969;19;20201;-81
2023/11/16 12:06:17;;;;;;;17.93;6.10;;;10.10;99.90;;;;;;7287442;19;20215;-81
2023/11/16 12:08:46;;;;;;;14.67;6.20;;;10.20;99.90;;;;;;7285823;19;20186;-81
2023/11/16 12:11:17;;;;;;;16.63;7.17;;;10.20;99.90;;;;;;7287338;19;20201;-81
2023/11/16 12:13:46;;;;;;;16.27;6.93;;;10.30;99.90;;;;;;7285429;19;20273;-81
2023/11/16 12:16:13;;;;;;;20.33;6.93;;;10.30;99.90;;;;;;7286617;19;20198;-81
2023/11/16 12:18:45;;;;;;;18.47;6.70;;;10.20;99.90;;;;;;7285581;19;20256;-81
2023/11/16 12:21:10;;;;;;;14.83;6.50;;;10.20;99.90;;;;;;7284448;19;20278;-81
2023/11/16 12:23:49;;;;;;;13.27;6.00;;;10.30;99.90;;;;;;7284453;19;20250;-83
2023/11/16 12:26:23;;;;;;;16.17;5.97;;;10.40;99.90;;;;;;7286060;19;20225;-81
2023/11/16 12:28:49;;;;;;;13.90;6.00;;;10.40;99.90;;;;;;7282799;19;20225;-82
2023/11/16 12:31:18;;;;;;;13.43;6.23;;;10.30;99.90;;;;;;7286937;19;20197;-82
2023/11/16 12:33:46;;;;;;;14.20;6.10;;;10.30;99.90;;;;;;7284676;19;20198;-82
2023/11/16 12:36:17;;;;;;;18.43;6.60;;;10.30;99.90;;;;;;7285448;19;20225;-82
2023/11/16 12:38:43;;;;;;;15.67;5.50;;;10.30;99.90;;;;;;7286501;19;20195;-82
2023/11/16 12:41:10;;;;;;;15.77;5.83;;;10.20;99.90;;;;;;7284415;19;20210;-81
2023/11/16 12:43:36;;;;;;;15.03;5.60;;;10.20;99.90;;;;;;7284700;19;20194;-82
2023/11/16 12:46:01;;;;;;;16.13;5.63;;;10.20;99.90;;;;;;7284777;19;20259;-81
2023/11/16 12:48:27;;;;;;;13.43;4.77;;;10.30;99.90;;;;;;7305406;19;20186;-81